Time;durP1;ratioP1;P1;durP2;ratioP2;P2;SDS_P1;SDS_P2;PMS_P1;PMS_P2;Temp;Humidity;BMP_temperature;BMP_pressure;BME280_temperature;BME280_humidity;BME280_pressure;Samples;Min_cycle;Max_cycle;Signal;HPM_P1;HPM_P2
2024/01/31 00:02:04;;;;;;;18.43;16.50;;;7.60;1.00;;;;;;5077543;28;20534;-61
2024/01/31 00:04:31;;;;;;;20.07;17.90;;;7.50;1.00;;;;;;5085274;28;21119;-66
2024/01/31 00:06:58;;;;;;;19.57;17.67;;;7.50;1.00;;;;;;5084967;28;20282;-63
2024/01/31 00:09:25;;;;;;;18.67;17.07;;;7.40;1.00;;;;;;5085846;28;20216;-63
2024/01/31 00:11:52;;;;;;;19.40;17.73;;;7.50;1.00;;;;;;5089997;28;20372;-69
2024/01/31 00:14:20;;;;;;;19.00;16.83;;;7.50;1.00;;;;;;5086081;28;20579;-69
2024/01/31 00:16:47;;;;;;;18.93;17.03;;;7.50;1.00;;;;;;5085696;28;20488;-70
2024/01/31 00:19:14;;;;;;;19.50;17.87;;;7.50;1.00;;;;;;5068700;28;20209;-69
2024/01/31 00:21:42;;;;;;;18.73;17.13;;;7.50;1.00;;;;;;5082793;28;20255;-63
2024/01/31 00:24:11;;;;;;;19.13;17.53;;;7.50;1.00;;;;;;5085163;28;20217;-62
2024/01/31 00:26:38;;;;;;;21.07;18.97;;;7.60;1.00;;;;;;5084694;28;20215;-63
2024/01/31 00:29:05;;;;;;;20.97;18.73;;;7.50;1.00;;;;;;5084077;28;20198;-62
2024/01/31 00:31:33;;;;;;;19.43;17.53;;;7.50;1.00;;;;;;5088073;28;20195;-63
2024/01/31 00:34:00;;;;;;;20.10;18.00;;;7.50;1.00;;;;;;5086230;28;20187;-63
2024/01/31 00:36:28;;;;;;;20.43;17.13;;;7.50;1.00;;;;;;5067844;28;20245;-62
2024/01/31 00:38:55;;;;;;;19.47;17.77;;;7.50;1.00;;;;;;5044423;28;20282;-62
2024/01/31 00:41:22;;;;;;;17.90;16.50;;;7.50;1.00;;;;;;5063355;28;20721;-62
2024/01/31 00:43:50;;;;;;;19.30;17.60;;;7.50;1.00;;;;;;5068413;28;20281;-62
2024/01/31 00:46:18;;;;;;;19.00;17.23;;;7.50;1.00;;;;;;5065493;28;20297;-63
2024/01/31 00:48:47;;;;;;;20.47;18.37;;;7.50;1.00;;;;;;5045255;28;20749;-61
2024/01/31 00:51:14;;;;;;;19.93;17.93;;;7.50;1.00;;;;;;5064710;28;20186;-62
2024/01/31 00:53:41;;;;;;;20.70;17.90;;;7.50;1.00;;;;;;5062950;28;20243;-63
2024/01/31 00:56:11;;;;;;;20.13;18.10;;;7.50;1.00;;;;;;5063986;28;20554;-63
2024/01/31 00:58:38;;;;;;;19.93;17.97;;;7.50;1.00;;;;;;5062626;28;20199;-62
2024/01/31 01:01:05;;;;;;;19.77;17.83;;;7.40;1.00;;;;;;5027366;28;20305;-62
2024/01/31 01:03:32;;;;;;;19.30;17.40;;;7.40;1.00;;;;;;5045361;28;20588;-62
2024/01/31 01:05:59;;;;;;;19.27;17.67;;;7.40;1.00;;;;;;5063377;28;20198;-62
2024/01/31 01:08:26;;;;;;;19.67;17.67;;;7.40;1.00;;;;;;5055833;28;20299;-62
2024/01/31 01:10:55;;;;;;;20.20;18.40;;;7.40;1.00;;;;;;5062268;28;20202;-61
2024/01/31 01:13:22;;;;;;;19.67;17.77;;;7.40;1.00;;;;;;5061892;28;20187;-61
2024/01/31 01:15:49;;;;;;;18.90;17.20;;;7.40;1.00;;;;;;5058807;28;20687;-62
2024/01/31 01:18:16;;;;;;;18.60;17.13;;;7.40;1.00;;;;;;5065888;28;20257;-62
2024/01/31 01:20:45;;;;;;;20.07;18.27;;;7.40;1.00;;;;;;5056071;28;20250;-61
2024/01/31 01:23:15;;;;;;;18.93;17.33;;;7.40;1.00;;;;;;5037540;28;20267;-71
2024/01/31 01:25:42;;;;;;;19.13;16.97;;;7.40;1.00;;;;;;5066322;28;20293;-67
2024/01/31 01:28:09;;;;;;;18.60;17.10;;;7.30;1.00;;;;;;5054566;28;20200;-67
2024/01/31 01:30:36;;;;;;;19.30;17.47;;;7.30;1.00;;;;;;5063549;28;20206;-67
2024/01/31 01:33:03;;;;;;;19.23;17.57;;;7.30;1.00;;;;;;5058847;28;20747;-71
2024/01/31 01:35:30;;;;;;;18.97;17.37;;;7.30;1.00;;;;;;5054227;28;20230;-68
2024/01/31 01:37:57;;;;;;;18.47;16.83;;;7.30;1.00;;;;;;5084092;28;20206;-68
2024/01/31 01:40:24;;;;;;;18.67;16.97;;;7.30;1.00;;;;;;5085762;28;20605;-68
2024/01/31 01:42:51;;;;;;;19.17;17.37;;;7.30;1.00;;;;;;5083315;28;20198;-68
2024/01/31 01:45:18;;;;;;;18.13;16.63;;;7.20;1.00;;;;;;5078706;28;20692;-67
2024/01/31 01:47:49;;;;;;;18.57;16.53;;;7.30;1.00;;;;;;5085436;28;20680;-68
2024/01/31 01:50:18;;;;;;;16.83;15.47;;;7.30;1.00;;;;;;5085943;28;20190;-69
2024/01/31 01:52:45;;;;;;;16.53;15.13;;;7.30;1.00;;;;;;5084846;28;20298;-69
2024/01/31 01:55:13;;;;;;;16.10;14.90;;;7.20;1.00;;;;;;5085762;28;20256;-66
2024/01/31 01:57:40;;;;;;;16.10;14.67;;;7.10;1.00;;;;;;5079855;28;20721;-70
2024/01/31 02:00:10;;;;;;;15.90;14.87;;;7.00;1.00;;;;;;5085796;28;20675;-67
2024/01/31 02:02:38;;;;;;;15.97;14.90;;;7.00;1.00;;;;;;5085561;28;20197;-69
2024/01/31 02:05:07;;;;;;;15.40;14.40;;;6.90;1.00;;;;;;5082677;28;20191;-70
2024/01/31 02:07:36;;;;;;;15.27;14.17;;;6.90;1.00;;;;;;5075611;28;20218;-68
2024/01/31 02:10:04;;;;;;;15.50;14.50;;;6.90;1.00;;;;;;5084504;28;20190;-68
2024/01/31 02:12:31;;;;;;;15.97;14.70;;;6.90;1.00;;;;;;5085434;28;20431;-68
2024/01/31 02:14:59;;;;;;;15.70;14.30;;;6.90;1.00;;;;;;5084088;28;20269;-68
2024/01/31 02:17:26;;;;;;;15.17;14.20;;;6.80;1.00;;;;;;5084044;28;20201;-68
2024/01/31 02:19:53;;;;;;;15.10;14.20;;;6.80;1.00;;;;;;5084137;28;20572;-68
2024/01/31 02:22:20;;;;;;;14.80;13.73;;;6.80;1.00;;;;;;5080283;28;20191;-68
2024/01/31 02:24:47;;;;;;;14.50;13.60;;;6.70;1.00;;;;;;5085991;28;20194;-68
2024/01/31 02:27:14;;;;;;;15.63;14.17;;;6.70;1.00;;;;;;5082040;28;20247;-69
2024/01/31 02:29:42;;;;;;;14.93;14.03;;;6.70;1.00;;;;;;5076906;28;20594;-68
2024/01/31 02:32:09;;;;;;;14.70;13.80;;;6.70;1.00;;;;;;5084367;28;20559;-69
2024/01/31 02:34:36;;;;;;;14.80;13.90;;;6.70;1.00;;;;;;5080463;28;20606;-67
2024/01/31 02:37:03;;;;;;;15.00;13.67;;;6.70;1.00;;;;;;5062488;28;20671;-69
2024/01/31 02:39:31;;;;;;;16.40;14.30;;;6.60;1.00;;;;;;5042630;28;20271;-69
2024/01/31 02:41:58;;;;;;;14.57;13.70;;;6.70;1.00;;;;;;5058758;28;20678;-63
2024/01/31 02:44:25;;;;;;;15.03;14.03;;;6.70;1.00;;;;;;5055781;28;20198;-64
2024/01/31 02:46:52;;;;;;;15.37;14.13;;;6.70;1.00;;;;;;5060660;28;20293;-64
2024/01/31 02:49:19;;;;;;;15.07;14.07;;;6.70;1.00;;;;;;5046262;28;20692;-62
2024/01/31 02:51:46;;;;;;;15.13;14.00;;;6.70;1.00;;;;;;5060700;28;20195;-62
2024/01/31 02:54:13;;;;;;;15.37;14.30;;;6.70;1.00;;;;;;5064249;28;20650;-62
2024/01/31 02:56:40;;;;;;;15.70;14.40;;;6.70;1.00;;;;;;5046553;28;20634;-62
2024/01/31 02:59:07;;;;;;;16.47;15.07;;;6.70;1.00;;;;;;5041933;28;20207;-62
2024/01/31 03:05:34;;;;;;;14.90;14.00;;;6.70;1.00;;;;;;5055267;28;20206;-62
2024/01/31 03:08:01;;;;;;;14.70;13.80;;;6.70;1.00;;;;;;5057296;28;20976;-66
2024/01/31 03:10:28;;;;;;;16.13;14.90;;;6.70;1.00;;;;;;5060044;28;20297;-62
2024/01/31 03:12:55;;;;;;;14.90;13.83;;;6.70;1.00;;;;;;5064419;28;20619;-64
2024/01/31 03:15:22;;;;;;;15.00;14.10;;;6.70;1.00;;;;;;5044055;28;20192;-61
2024/01/31 03:17:49;;;;;;;14.93;13.83;;;6.70;1.00;;;;;;5067707;28;20215;-66
2024/01/31 03:20:16;;;;;;;15.23;13.90;;;6.70;1.00;;;;;;5063544;28;20201;-64
2024/01/31 03:22:43;;;;;;;15.37;14.07;;;6.60;1.00;;;;;;5061797;28;20497;-61
2024/01/31 03:25:10;;;;;;;15.10;13.87;;;6.60;1.00;;;;;;5050188;28;20191;-61
2024/01/31 03:27:37;;;;;;;15.53;14.33;;;6.60;1.00;;;;;;5046087;28;20209;-62
2024/01/31 03:30:05;;;;;;;15.40;14.20;;;6.60;1.00;;;;;;5067008;28;20191;-65
2024/01/31 03:32:36;;;;;;;15.00;14.10;;;6.60;1.00;;;;;;5059903;28;20195;-63
2024/01/31 03:35:04;;;;;;;15.30;14.30;;;6.60;1.00;;;;;;5064766;28;20311;-63
2024/01/31 03:37:31;;;;;;;14.67;13.77;;;6.60;1.00;;;;;;5069786;28;20700;-62
2024/01/31 03:39:58;;;;;;;15.60;14.37;;;6.60;1.00;;;;;;5067119;28;20222;-63
2024/01/31 03:42:25;;;;;;;15.10;14.00;;;6.60;1.00;;;;;;5070757;28;20270;-69
2024/01/31 03:44:52;;;;;;;15.13;14.00;;;6.60;1.00;;;;;;5069129;28;20191;-69
2024/01/31 03:47:19;;;;;;;14.73;13.70;;;6.60;1.00;;;;;;5047374;28;20285;-70
2024/01/31 03:49:46;;;;;;;15.53;14.27;;;6.60;1.00;;;;;;5069484;28;20295;-71
2024/01/31 03:52:14;;;;;;;15.10;13.80;;;6.60;1.00;;;;;;5069610;28;20210;-64
2024/01/31 03:54:41;;;;;;;14.73;13.80;;;6.60;1.00;;;;;;5048756;28;20225;-64
2024/01/31 03:57:08;;;;;;;15.40;14.00;;;6.50;1.00;;;;;;5051609;28;20299;-64
2024/01/31 03:59:36;;;;;;;18.60;14.67;;;6.50;1.00;;;;;;5071934;28;20569;-63
2024/01/31 04:02:06;;;;;;;15.47;14.23;;;6.50;1.00;;;;;;5048780;28;20207;-64
2024/01/31 04:04:33;;;;;;;15.93;14.50;;;6.50;1.00;;;;;;5050505;28;20207;-63
2024/01/31 04:07:00;;;;;;;14.93;14.00;;;6.60;1.00;;;;;;5067797;28;20334;-62
2024/01/31 04:09:27;;;;;;;15.50;14.10;;;6.50;1.00;;;;;;5065097;28;20191;-64
2024/01/31 04:11:54;;;;;;;15.10;13.90;;;6.60;1.00;;;;;;5049823;28;20190;-62
2024/01/31 04:14:20;;;;;;;15.10;14.10;;;6.60;1.00;;;;;;5065673;28;20606;-62
2024/01/31 04:16:48;;;;;;;14.97;13.87;;;6.40;1.00;;;;;;5048485;23;20324;-62
2024/01/31 04:19:15;;;;;;;15.20;14.10;;;6.50;1.00;;;;;;4976080;28;20193;-64
2024/01/31 04:21:42;;;;;;;14.90;14.00;;;6.50;1.00;;;;;;4996834;28;20289;-63
2024/01/31 04:24:09;;;;;;;15.73;14.50;;;6.50;1.00;;;;;;5008013;28;20201;-64
2024/01/31 04:26:43;;;;;;;15.43;14.17;;;6.50;1.00;;;;;;5006219;28;20622;-63
2024/01/31 04:29:10;;;;;;;15.27;14.37;;;6.50;1.00;;;;;;5004582;28;20193;-65
2024/01/31 04:31:37;;;;;;;15.57;14.57;;;6.50;1.00;;;;;;5001612;28;20232;-62
2024/01/31 04:34:04;;;;;;;15.63;14.30;;;6.40;99.90;;;;;;5004675;28;20619;-61
2024/01/31 04:36:32;;;;;;;15.30;14.30;;;6.50;99.90;;;;;;4997407;28;20636;-62
2024/01/31 04:39:00;;;;;;;15.57;14.47;;;6.50;99.90;;;;;;5002978;28;20208;-62
2024/01/31 04:41:27;;;;;;;14.97;14.07;;;6.40;99.90;;;;;;4995251;28;20818;-62
2024/01/31 04:43:55;;;;;;;15.40;14.50;;;6.50;99.90;;;;;;5008095;28;20200;-64
2024/01/31 04:46:22;;;;;;;15.37;14.43;;;6.40;99.90;;;;;;5005730;28;20212;-62
2024/01/31 04:48:49;;;;;;;15.97;14.53;;;6.40;99.90;;;;;;5003362;28;20742;-63
2024/01/31 04:51:16;;;;;;;16.03;14.87;;;6.40;99.90;;;;;;5007616;28;20224;-71
2024/01/31 04:53:43;;;;;;;15.30;14.40;;;6.40;99.90;;;;;;5007576;28;20679;-70
2024/01/31 04:56:10;;;;;;;16.27;15.17;;;6.40;99.90;;;;;;5007110;28;20220;-69
2024/01/31 04:58:37;;;;;;;16.60;15.30;;;6.40;99.90;;;;;;5006962;28;20683;-70
2024/01/31 05:01:05;;;;;;;16.33;14.97;;;6.40;99.90;;;;;;5001087;28;20200;-69
2024/01/31 05:03:32;;;;;;;15.53;14.37;;;6.40;99.90;;;;;;4985248;28;21035;-69
2024/01/31 05:05:59;;;;;;;16.03;14.83;;;6.40;99.90;;;;;;5000314;28;20224;-68
2024/01/31 05:08:28;;;;;;;16.23;14.93;;;6.40;99.90;;;;;;5005991;28;20205;-74
2024/01/31 05:10:55;;;;;;;17.07;15.63;;;6.40;99.90;;;;;;4999805;28;20258;-69
2024/01/31 05:13:22;;;;;;;15.50;14.60;;;6.40;99.90;;;;;;5002928;28;20248;-70
2024/01/31 05:15:51;;;;;;;16.07;15.00;;;6.40;99.90;;;;;;5001924;28;20204;-70
2024/01/31 05:18:18;;;;;;;16.13;14.80;;;6.40;99.90;;;;;;5000965;28;20923;-68
2024/01/31 05:20:45;;;;;;;16.10;14.90;;;6.40;99.90;;;;;;5020496;28;20193;-68
2024/01/31 05:23:12;;;;;;;15.80;14.70;;;6.40;99.90;;;;;;5005974;28;20279;-68
2024/01/31 05:25:39;;;;;;;15.73;14.73;;;6.40;99.90;;;;;;5005017;28;20251;-70
2024/01/31 05:28:06;;;;;;;16.30;15.00;;;6.40;99.90;;;;;;5000958;28;20660;-69
2024/01/31 05:30:33;;;;;;;15.97;14.97;;;6.40;99.90;;;;;;5004574;28;20197;-70
2024/01/31 05:33:00;;;;;;;16.13;14.90;;;6.40;99.90;;;;;;5012073;28;20263;-69
2024/01/31 05:35:28;;;;;;;17.93;16.57;;;6.40;99.90;;;;;;5006363;28;20203;-69
2024/01/31 05:37:54;;;;;;;18.73;17.33;;;6.40;99.90;;;;;;5005898;28;20282;-69
2024/01/31 05:40:23;;;;;;;16.13;14.90;;;6.40;99.90;;;;;;5003646;28;20300;-68
2024/01/31 05:42:50;;;;;;;15.80;14.90;;;6.40;99.90;;;;;;4996929;28;20200;-69
2024/01/31 05:45:19;;;;;;;16.40;15.30;;;6.40;99.90;;;;;;5006353;28;20219;-67
2024/01/31 05:47:46;;;;;;;16.00;15.00;;;6.40;99.90;;;;;;5006336;28;20267;-68
2024/01/31 05:50:13;;;;;;;16.30;15.20;;;6.40;99.90;;;;;;5005164;28;20776;-75
2024/01/31 05:52:40;;;;;;;16.47;15.47;;;6.40;99.90;;;;;;5005942;28;20205;-68
2024/01/31 05:55:07;;;;;;;16.60;15.50;;;6.30;99.90;;;;;;5007174;28;20193;-67
2024/01/31 05:57:34;;;;;;;16.53;15.53;;;6.30;99.90;;;;;;5006377;28;20193;-68
2024/01/31 06:00:07;;;;;;;16.50;15.40;;;6.40;99.90;;;;;;5002428;28;20197;-73
2024/01/31 06:02:38;;;;;;;17.50;16.20;;;6.30;99.90;;;;;;5004428;28;20275;-70
2024/01/31 06:05:06;;;;;;;17.10;15.97;;;6.30;99.90;;;;;;5006812;28;20634;-67
2024/01/31 06:07:33;;;;;;;17.20;16.10;;;6.30;99.90;;;;;;4999321;28;20236;-68
2024/01/31 06:10:00;;;;;;;17.27;16.07;;;6.30;99.90;;;;;;5003463;28;20196;-68
2024/01/31 06:12:27;;;;;;;16.77;15.73;;;6.30;99.90;;;;;;4997597;28;20276;-68
2024/01/31 06:14:54;;;;;;;17.20;15.77;;;6.30;99.90;;;;;;5000995;28;20185;-67
2024/01/31 06:17:21;;;;;;;18.43;16.97;;;6.30;99.90;;;;;;5006239;28;20737;-68
2024/01/31 06:19:48;;;;;;;18.27;16.87;;;6.30;99.90;;;;;;5002016;28;20208;-67
2024/01/31 06:22:17;;;;;;;20.97;19.13;;;6.30;99.90;;;;;;4990300;28;20221;-67
2024/01/31 06:24:44;;;;;;;18.33;17.03;;;6.20;99.90;;;;;;5004388;28;20225;-68
2024/01/31 06:27:11;;;;;;;17.53;16.43;;;6.20;99.90;;;;;;5002921;28;20698;-68
2024/01/31 06:29:40;;;;;;;17.03;15.90;;;6.20;99.90;;;;;;4999034;28;20742;-67
2024/01/31 06:32:07;;;;;;;18.20;16.80;;;6.20;99.90;;;;;;5004086;28;20762;-80
2024/01/31 06:34:34;;;;;;;16.57;15.37;;;6.30;99.90;;;;;;4987880;28;20270;-67
2024/01/31 06:37:01;;;;;;;16.83;15.30;;;6.30;99.90;;;;;;5000214;28;20316;-69
2024/01/31 06:39:29;;;;;;;16.30;15.30;;;6.30;99.90;;;;;;4994194;28;20197;-68
2024/01/31 06:41:55;;;;;;;16.87;15.70;;;6.30;99.90;;;;;;4994014;28;20267;-68
2024/01/31 06:44:22;;;;;;;16.60;15.40;;;6.30;99.90;;;;;;5005786;28;20197;-68
2024/01/31 06:46:50;;;;;;;17.23;15.60;;;6.30;99.90;;;;;;5000049;28;20289;-68
2024/01/31 06:49:17;;;;;;;16.57;15.57;;;6.20;99.90;;;;;;5000937;28;20598;-69
2024/01/31 06:51:44;;;;;;;16.67;15.40;;;6.30;99.90;;;;;;4993061;28;20220;-68
2024/01/31 06:54:12;;;;;;;17.23;15.80;;;6.20;99.90;;;;;;5000277;28;20197;-68
2024/01/31 06:56:39;;;;;;;16.87;15.63;;;6.10;99.90;;;;;;5002286;28;20216;-68
2024/01/31 06:59:07;;;;;;;16.60;15.53;;;6.10;99.90;;;;;;4990234;28;20241;-66
2024/01/31 07:01:34;;;;;;;17.03;15.80;;;6.00;99.90;;;;;;4999972;28;20203;-68
2024/01/31 07:04:01;;;;;;;16.80;15.80;;;6.00;99.90;;;;;;5005926;28;20608;-68
2024/01/31 07:06:29;;;;;;;16.37;15.40;;;6.00;99.90;;;;;;5003500;28;20927;-68
2024/01/31 07:08:56;;;;;;;16.60;15.60;;;6.00;99.90;;;;;;5005840;28;20197;-66
2024/01/31 07:11:22;;;;;;;16.50;15.50;;;6.10;99.90;;;;;;4996365;28;20216;-68
2024/01/31 07:13:50;;;;;;;16.40;15.40;;;6.10;99.90;;;;;;5004195;28;20690;-62
2024/01/31 07:16:17;;;;;;;16.50;15.47;;;6.10;99.90;;;;;;4996082;28;20193;-65
2024/01/31 07:18:44;;;;;;;17.40;16.17;;;6.10;99.90;;;;;;5001350;28;20231;-62
2024/01/31 07:21:23;;;;;;;16.17;15.27;;;6.10;99.90;;;;;;5004214;28;20947;-63
2024/01/31 07:23:51;;;;;;;17.13;15.53;;;6.10;99.90;;;;;;4990253;28;20561;-62
2024/01/31 07:26:26;;;;;;;16.90;15.80;;;6.10;99.90;;;;;;5004719;28;20363;-63
2024/01/31 07:28:54;;;;;;;17.77;15.97;;;6.20;99.90;;;;;;4991332;28;20206;-63
2024/01/31 07:31:21;;;;;;;17.07;15.97;;;6.20;99.90;;;;;;4994671;28;20596;-63
2024/01/31 07:33:49;;;;;;;17.70;16.50;;;6.20;99.90;;;;;;5004283;28;20228;-63
2024/01/31 07:36:16;;;;;;;17.40;16.03;;;6.20;99.90;;;;;;5004202;28;20185;-63
2024/01/31 07:38:44;;;;;;;17.30;16.03;;;6.20;99.90;;;;;;5003106;28;20295;-63
2024/01/31 07:41:12;;;;;;;17.20;16.07;;;6.30;99.90;;;;;;4992811;28;20232;-64
2024/01/31 07:43:43;;;;;;;20.30;18.23;;;6.30;99.90;;;;;;5003975;28;20197;-63
2024/01/31 07:46:10;;;;;;;66.07;29.43;;;6.30;99.90;;;;;;5003104;28;20395;-64
2024/01/31 07:48:37;;;;;;;84.23;34.17;;;6.30;99.90;;;;;;4997027;28;20610;-63
2024/01/31 07:51:06;;;;;;;30.17;21.93;;;6.40;99.90;;;;;;4996759;28;20283;-63
2024/01/31 07:53:33;;;;;;;18.30;16.93;;;6.40;99.90;;;;;;5003949;28;20205;-64
2024/01/31 07:56:01;;;;;;;16.67;15.57;;;6.40;99.90;;;;;;5005500;28;20189;-63
2024/01/31 07:58:31;;;;;;;17.33;15.73;;;6.40;99.90;;;;;;5007683;28;20732;-63
2024/01/31 08:00:59;;;;;;;17.63;16.33;;;6.40;99.90;;;;;;5007465;28;20669;-66
2024/01/31 08:03:26;;;;;;;17.80;15.97;;;6.20;99.90;;;;;;5006819;28;20212;-63
2024/01/31 08:05:53;;;;;;;17.00;15.77;;;6.20;99.90;;;;;;5008050;28;20190;-63
2024/01/31 08:08:20;;;;;;;17.23;16.03;;;6.20;99.90;;;;;;5006550;28;20617;-63
2024/01/31 08:10:47;;;;;;;17.83;16.53;;;6.20;99.90;;;;;;4994069;28;20190;-63
2024/01/31 08:13:14;;;;;;;16.97;15.97;;;6.10;99.90;;;;;;4996664;28;20280;-63
2024/01/31 08:15:41;;;;;;;17.50;15.73;;;6.20;99.90;;;;;;4994929;28;20219;-63
2024/01/31 08:18:08;;;;;;;17.10;15.90;;;6.20;99.90;;;;;;5008223;28;20353;-64
2024/01/31 08:20:35;;;;;;;17.97;16.50;;;6.10;99.90;;;;;;5008054;28;20235;-63
2024/01/31 08:23:02;;;;;;;17.33;16.10;;;6.20;99.90;;;;;;5011932;28;20276;-69
2024/01/31 08:25:29;;;;;;;17.13;16.10;;;6.40;99.90;;;;;;5005921;28;20201;-68
2024/01/31 08:27:57;;;;;;;17.30;16.00;;;6.30;99.90;;;;;;5003011;28;20237;-69
2024/01/31 08:30:24;;;;;;;18.37;16.63;;;6.40;99.90;;;;;;5001677;28;20458;-69
2024/01/31 08:32:51;;;;;;;17.43;16.23;;;6.40;99.90;;;;;;4977531;28;20200;-69
2024/01/31 08:35:18;;;;;;;16.77;15.77;;;6.50;99.90;;;;;;5004906;28;20670;-68
2024/01/31 08:37:45;;;;;;;17.67;15.97;;;6.60;99.90;;;;;;4989603;28;20704;-68
2024/01/31 08:40:14;;;;;;;17.53;16.10;;;6.60;99.90;;;;;;4993679;28;20642;-73
2024/01/31 08:42:46;;;;;;;17.20;16.03;;;6.60;99.90;;;;;;5006303;28;20701;-72
2024/01/31 08:45:13;;;;;;;18.10;16.80;;;6.70;99.90;;;;;;5006023;28;20201;-68
2024/01/31 08:47:41;;;;;;;17.10;16.00;;;6.70;99.90;;;;;;5004353;28;20546;-69
2024/01/31 08:50:09;;;;;;;17.13;15.83;;;6.70;99.90;;;;;;5005009;28;20496;-67
2024/01/31 08:52:37;;;;;;;17.07;15.93;;;6.60;99.90;;;;;;4999962;28;20197;-68
2024/01/31 08:55:05;;;;;;;18.77;17.07;;;6.70;99.90;;;;;;5005312;28;20211;-69
2024/01/31 08:57:33;;;;;;;17.43;16.30;;;6.80;99.90;;;;;;5001962;28;20237;-68
2024/01/31 09:00:00;;;;;;;17.77;16.40;;;6.80;99.90;;;;;;4999460;28;20193;-69
2024/01/31 09:02:28;;;;;;;17.63;16.10;;;6.80;99.90;;;;;;5004024;28;20304;-68
2024/01/31 09:04:55;;;;;;;17.40;16.03;;;6.80;99.90;;;;;;5007400;28;20263;-68
2024/01/31 09:07:22;;;;;;;19.27;17.70;;;6.80;99.90;;;;;;5006663;28;20217;-68
2024/01/31 09:09:49;;;;;;;18.03;16.73;;;6.90;99.90;;;;;;5002013;28;20188;-68
2024/01/31 09:12:16;;;;;;;16.80;15.70;;;6.90;99.90;;;;;;5013283;28;20192;-69
2024/01/31 09:14:43;;;;;;;20.83;18.63;;;6.90;99.90;;;;;;5021684;28;20637;-69
2024/01/31 09:17:10;;;;;;;18.67;17.27;;;6.90;99.90;;;;;;5018128;28;20241;-69
2024/01/31 09:19:37;;;;;;;18.77;17.20;;;6.80;99.90;;;;;;5003225;28;20201;-68
2024/01/31 09:22:05;;;;;;;24.50;20.90;;;6.80;99.90;;;;;;5001869;28;20201;-72
2024/01/31 09:24:32;;;;;;;23.27;20.77;;;6.80;99.90;;;;;;5005289;28;20616;-69
2024/01/31 09:26:59;;;;;;;27.93;21.53;;;6.90;99.90;;;;;;4999849;28;20204;-68
2024/01/31 09:29:26;;;;;;;30.13;21.03;;;6.90;99.90;;;;;;5001911;28;20197;-69
2024/01/31 09:31:53;;;;;;;18.30;17.00;;;6.80;99.90;;;;;;5007455;28;20642;-63
2024/01/31 09:34:20;;;;;;;21.67;20.07;;;6.90;99.90;;;;;;5005714;28;20704;-63
2024/01/31 09:36:48;;;;;;;19.97;18.37;;;6.90;99.90;;;;;;5006763;28;20196;-63
2024/01/31 09:39:15;;;;;;;19.30;17.70;;;7.00;99.90;;;;;;4989027;28;20327;-63
2024/01/31 09:41:42;;;;;;;18.87;17.30;;;7.00;99.90;;;;;;5022573;28;20200;-65
2024/01/31 09:44:09;;;;;;;18.40;17.00;;;7.10;99.90;;;;;;5005223;28;20699;-63
2024/01/31 09:46:40;;;;;;;19.00;17.63;;;7.10;99.90;;;;;;4999153;28;20678;-63
2024/01/31 09:49:07;;;;;;;20.03;18.17;;;7.10;99.90;;;;;;4992514;28;20205;-63
2024/01/31 09:51:34;;;;;;;18.93;17.63;;;7.00;99.90;;;;;;5004340;28;20275;-63
2024/01/31 09:54:02;;;;;;;17.87;16.57;;;7.00;99.90;;;;;;4998733;28;20782;-63
2024/01/31 09:56:31;;;;;;;19.37;17.87;;;7.10;99.90;;;;;;5004798;28;20185;-63
2024/01/31 09:58:59;;;;;;;19.73;17.97;;;7.00;99.90;;;;;;4995125;28;20204;-63
2024/01/31 10:01:27;;;;;;;18.77;17.27;;;7.00;99.90;;;;;;5004329;28;20192;-64
2024/01/31 10:03:59;;;;;;;18.40;17.00;;;7.20;99.90;;;;;;5003287;28;20197;-76
2024/01/31 10:06:27;;;;;;;18.10;16.70;;;7.30;99.90;;;;;;5005401;28;20621;-62
2024/01/31 10:08:57;;;;;;;18.60;17.00;;;7.30;99.90;;;;;;4996632;28;20576;-64
2024/01/31 10:11:25;;;;;;;19.63;18.23;;;7.40;99.90;;;;;;4997154;28;20213;-63
2024/01/31 10:13:53;;;;;;;18.83;17.30;;;7.30;99.90;;;;;;4988499;28;20658;-64
2024/01/31 10:16:21;;;;;;;18.40;17.00;;;7.40;99.90;;;;;;5002965;28;20754;-63
2024/01/31 10:18:48;;;;;;;20.67;18.67;;;7.40;99.90;;;;;;5005179;28;20247;-63
2024/01/31 10:21:19;;;;;;;19.27;17.70;;;7.50;99.90;;;;;;5009987;28;20626;-63
2024/01/31 10:24:17;;;;;;;19.47;17.87;;;7.60;99.90;;;;;;5006141;28;20259;-66
2024/01/31 10:26:47;;;;;;;20.73;18.53;;;7.60;99.90;;;;;;4999947;28;20213;-66
2024/01/31 10:29:18;;;;;;;18.53;17.13;;;7.10;99.90;;;;;;4999979;28;20201;-65
2024/01/31 10:31:49;;;;;;;19.00;17.50;;;7.00;99.90;;;;;;4995133;28;20523;-64
2024/01/31 10:34:20;;;;;;;21.10;19.33;;;7.00;99.90;;;;;;5005570;28;20221;-65
2024/01/31 10:37:06;;;;;;;19.70;18.10;;;7.20;99.90;;;;;;4998119;28;20201;-65
2024/01/31 10:40:01;;;;;;;20.53;18.83;;;7.10;99.90;;;;;;4990626;28;20205;-63
2024/01/31 10:42:29;;;;;;;19.93;18.23;;;7.10;99.90;;;;;;5001265;28;20239;-64
2024/01/31 10:44:59;;;;;;;21.20;19.60;;;6.90;99.90;;;;;;4989934;28;20562;-64
2024/01/31 10:47:29;;;;;;;21.47;19.57;;;6.80;99.90;;;;;;4978576;28;20736;-64
2024/01/31 10:49:56;;;;;;;22.13;20.33;;;6.80;99.90;;;;;;5004586;28;20552;-63
2024/01/31 10:52:27;;;;;;;19.43;17.93;;;6.70;99.90;;;;;;5002996;28;20193;-69
2024/01/31 10:54:58;;;;;;;19.80;18.30;;;6.70;99.90;;;;;;5007385;28;20453;-71
2024/01/31 10:57:27;;;;;;;20.00;18.30;;;6.60;99.90;;;;;;5006409;28;20228;-68
2024/01/31 10:59:59;;;;;;;19.27;17.60;;;6.60;99.90;;;;;;5004528;28;20268;-70
2024/01/31 11:02:33;;;;;;;19.63;18.13;;;6.60;99.90;;;;;;5003030;28;20688;-68
2024/01/31 11:05:06;;;;;;;19.87;18.20;;;6.70;99.90;;;;;;4973675;28;20572;-69
2024/01/31 11:07:49;;;;;;;20.90;18.87;;;6.60;99.90;;;;;;5002525;28;20724;-68
2024/01/31 11:10:27;;;;;;;19.87;18.27;;;6.70;99.90;;;;;;4999762;28;20669;-70
2024/01/31 11:12:59;;;;;;;19.83;18.23;;;6.80;99.90;;;;;;4990545;28;20197;-69
2024/01/31 11:15:35;;;;;;;20.10;18.13;;;6.80;99.90;;;;;;5006206;28;20844;-70
2024/01/31 11:18:09;;;;;;;19.90;18.30;;;6.70;99.90;;;;;;5005130;28;20500;-71
2024/01/31 11:20:52;;;;;;;21.83;20.00;;;6.70;99.90;;;;;;4994390;28;20292;-70
2024/01/31 11:23:35;;;;;;;21.27;19.40;;;6.90;99.90;;;;;;5011327;28;20880;-68
2024/01/31 11:26:05;;;;;;;22.10;20.30;;;7.20;99.90;;;;;;4987716;28;20553;-70
2024/01/31 11:28:41;;;;;;;20.23;18.50;;;7.10;99.90;;;;;;4983066;28;20633;-71
2024/01/31 11:31:10;;;;;;;20.53;18.83;;;7.00;99.90;;;;;;5001436;28;20193;-70
2024/01/31 11:33:39;;;;;;;20.27;18.63;;;7.00;99.90;;;;;;5008012;28;20201;-69
2024/01/31 11:36:09;;;;;;;20.63;18.50;;;7.00;99.90;;;;;;5009954;28;20197;-69
2024/01/31 11:38:38;;;;;;;20.43;18.50;;;7.10;99.90;;;;;;5008727;28;20692;-69
2024/01/31 11:41:06;;;;;;;20.57;18.87;;;6.90;99.90;;;;;;4989865;28;20666;-72
2024/01/31 11:43:34;;;;;;;20.70;18.73;;;7.00;99.90;;;;;;4973953;28;20678;-69
2024/01/31 11:46:01;;;;;;;21.13;19.23;;;7.00;99.90;;;;;;5003404;28;20198;-69
2024/01/31 11:48:29;;;;;;;21.03;19.10;;;7.00;99.90;;;;;;5006069;28;20212;-72
2024/01/31 11:50:56;;;;;;;20.53;18.83;;;7.10;99.90;;;;;;5005563;28;20720;-70
2024/01/31 11:53:24;;;;;;;20.50;18.90;;;7.20;99.90;;;;;;5004619;28;20197;-63
2024/01/31 11:55:51;;;;;;;20.30;18.63;;;7.40;99.90;;;;;;5008003;28;20365;-64
2024/01/31 11:58:18;;;;;;;20.03;18.33;;;7.50;99.90;;;;;;5008381;28;20201;-63
2024/01/31 12:00:45;;;;;;;20.30;18.57;;;7.40;99.90;;;;;;5006587;28;20681;-63
2024/01/31 12:03:13;;;;;;;19.13;17.73;;;7.40;99.90;;;;;;5007285;28;20201;-65
2024/01/31 12:05:40;;;;;;;19.57;18.07;;;7.50;99.90;;;;;;5004547;28;20247;-65
2024/01/31 12:08:07;;;;;;;20.63;18.93;;;7.90;99.90;;;;;;5007782;28;20205;-62
2024/01/31 12:10:34;;;;;;;20.67;19.00;;;7.80;99.90;;;;;;5005292;28;20200;-63
2024/01/31 12:13:01;;;;;;;20.83;19.33;;;7.60;99.90;;;;;;5008224;28;20557;-63
2024/01/31 12:15:30;;;;;;;20.80;18.90;;;7.40;99.90;;;;;;5009179;28;20196;-63
2024/01/31 12:18:00;;;;;;;20.23;18.70;;;7.20;99.90;;;;;;5008807;28;20236;-63
2024/01/31 12:20:29;;;;;;;20.33;18.63;;;7.20;99.90;;;;;;4998355;28;20189;-63
2024/01/31 12:22:57;;;;;;;20.60;18.90;;;7.30;99.90;;;;;;5008094;28;20201;-64
2024/01/31 12:25:24;;;;;;;19.93;18.43;;;7.30;99.90;;;;;;5006393;28;20216;-64
2024/01/31 12:27:51;;;;;;;21.43;19.40;;;7.40;99.90;;;;;;5007617;28;20568;-67
2024/01/31 12:30:18;;;;;;;21.00;19.20;;;7.40;99.90;;;;;;5004940;28;20193;-63
2024/01/31 12:32:45;;;;;;;21.23;19.17;;;7.30;99.90;;;;;;5007375;28;20197;-63
2024/01/31 12:35:13;;;;;;;21.13;19.37;;;7.30;99.90;;;;;;5006574;28;20247;-63
2024/01/31 12:37:40;;;;;;;21.10;19.00;;;7.40;99.90;;;;;;5008101;28;20564;-63
2024/01/31 12:40:07;;;;;;;21.17;19.17;;;7.50;99.90;;;;;;4997687;28;20189;-62
2024/01/31 12:42:35;;;;;;;21.53;19.63;;;7.50;99.90;;;;;;4992672;28;20193;-65
2024/01/31 12:45:03;;;;;;;20.83;19.13;;;7.70;99.90;;;;;;5005986;28;20558;-65
2024/01/31 12:47:31;;;;;;;20.10;18.50;;;7.80;99.90;;;;;;5001238;28;20620;-62
2024/01/31 12:49:58;;;;;;;19.90;18.10;;;7.80;99.90;;;;;;5001529;28;20209;-62